Time;durP1;ratioP1;P1;durP2;ratioP2;P2;SDS_P1;SDS_P2;PMS_P1;PMS_P2;Temp;Humidity;BMP_temperature;BMP_pressure;BME280_temperature;BME280_humidity;BME280_pressure;Samples;Min_cycle;Max_cycle;Signal;HPM_P1;HPM_P2
2022/09/03 00:00:22;;;;;;;3.10;1.73;;;22.70;49.90;;;23.05;36.25;98234.00;5021591;27;124158;-85
2022/09/03 00:03:13;;;;;;;2.40;1.63;;;22.70;50.00;;;23.06;36.14;98229.97;5020957;27;122892;-84
2022/09/03 00:05:48;;;;;;;2.13;1.57;;;22.70;50.20;;;23.07;36.21;98237.22;5015491;28;115157;-85
2022/09/03 00:08:36;;;;;;;2.70;1.93;;;22.80;50.40;;;23.06;36.39;98225.16;5011303;28;115179;-85
2022/09/03 00:11:39;;;;;;;2.57;1.73;;;22.60;50.60;;;23.04;36.32;98226.78;5020845;28;124032;-85
2022/09/03 00:14:18;;;;;;;3.60;1.63;;;22.60;51.00;;;23.04;36.38;98224.75;5024906;27;123967;-85
2022/09/03 00:17:01;;;;;;;2.00;1.53;;;22.60;50.50;;;23.04;36.17;98221.13;5020010;28;114692;-85
2022/09/03 00:19:35;;;;;;;5.47;1.67;;;22.60;50.50;;;23.05;36.38;98219.91;5020110;28;114617;-86
2022/09/03 00:22:28;;;;;;;2.60;1.80;;;22.60;50.50;;;23.04;36.10;98219.13;5020241;28;123733;-84
2022/09/03 00:24:59;;;;;;;2.93;2.00;;;22.60;50.50;;;23.03;36.34;98225.19;5022228;28;123917;-84
2022/09/03 00:27:32;;;;;;;2.57;1.60;;;22.60;50.50;;;23.04;36.37;98218.31;5022411;28;113536;-86
2022/09/03 00:30:03;;;;;;;3.50;1.70;;;22.60;50.60;;;23.04;36.51;98212.69;5021081;28;114690;-85
2022/09/03 00:32:45;;;;;;;3.27;2.20;;;22.60;50.60;;;23.04;36.09;98219.13;5016520;28;123984;-84
2022/09/03 00:35:30;;;;;;;3.10;1.70;;;22.60;50.50;;;23.02;36.02;98220.72;5024668;28;123042;-86
2022/09/03 00:37:58;;;;;;;4.40;2.13;;;22.60;50.50;;;23.00;36.52;98218.34;5023802;28;114867;-86
2022/09/03 00:41:01;;;;;;;3.47;1.90;;;22.50;50.50;;;23.00;36.46;98223.16;5024054;28;113989;-86
2022/09/03 00:43:55;;;;;;;2.37;1.63;;;22.60;50.70;;;22.96;36.61;98233.63;5022970;28;124213;-84
2022/09/03 00:46:40;;;;;;;2.07;1.70;;;22.50;50.80;;;22.93;36.42;98216.31;5020846;28;123942;-85
2022/09/03 00:49:21;;;;;;;2.87;1.83;;;22.50;50.90;;;22.93;36.45;98210.69;5021443;28;114055;-85
2022/09/03 00:52:18;;;;;;;2.73;1.80;;;22.50;51.00;;;22.89;36.55;98209.91;5016934;28;113973;-86
2022/09/03 00:55:30;;;;;;;3.13;1.70;;;22.50;51.20;;;22.87;36.99;98215.16;5019425;28;124870;-85
2022/09/03 00:58:25;;;;;;;4.27;2.30;;;22.50;51.40;;;22.86;36.97;98221.19;4994922;28;124215;-85
2022/09/03 01:00:52;;;;;;;2.97;1.80;;;22.40;51.40;;;22.86;37.04;98216.38;5019907;28;115250;-86
2022/09/03 01:03:39;;;;;;;3.07;1.70;;;22.40;51.70;;;22.86;37.28;98226.81;5015030;27;114591;-86
2022/09/03 01:06:17;;;;;;;2.77;2.10;;;22.40;51.80;;;22.85;37.12;98217.56;4977511;28;123811;-84
2022/09/03 01:09:10;;;;;;;2.70;2.00;;;22.40;52.00;;;22.86;37.31;98222.00;4970649;28;123663;-83
2022/09/03 01:12:00;;;;;;;3.37;2.00;;;22.40;52.10;;;22.85;37.53;98223.19;4978705;28;114337;-84
2022/09/03 01:14:49;;;;;;;3.50;2.47;;;22.40;52.20;;;22.85;37.70;98223.19;4978904;28;113830;-84
2022/09/03 01:17:35;;;;;;;3.70;2.10;;;22.40;52.30;;;22.85;37.42;98219.59;4979552;28;124032;-84
2022/09/03 01:20:41;;;;;;;4.77;2.57;;;22.40;52.40;;;22.84;37.85;98213.16;4989086;28;124245;-85
2022/09/03 01:23:47;;;;;;;2.23;1.90;;;22.40;52.50;;;22.84;37.50;98215.97;4966138;28;114193;-85
2022/09/03 01:26:36;;;;;;;2.73;1.80;;;22.40;52.60;;;22.86;37.55;98213.56;4969754;28;115904;-84
2022/09/03 01:29:28;;;;;;;2.13;1.63;;;22.40;52.60;;;22.85;37.48;98214.75;4970565;28;122686;-85
2022/09/03 01:32:07;;;;;;;3.83;1.70;;;22.40;52.40;;;22.85;37.48;98217.56;4973736;28;123636;-85
2022/09/03 01:34:52;;;;;;;4.53;1.73;;;22.40;52.30;;;22.85;37.33;98216.75;4969574;28;114291;-84
2022/09/03 01:37:57;;;;;;;2.10;1.57;;;22.40;52.30;;;22.83;37.47;98214.34;4977753;28;114124;-84
2022/09/03 01:40:29;;;;;;;4.37;2.13;;;22.40;52.40;;;22.84;37.72;98221.59;4976518;28;123849;-84
2022/09/03 01:43:35;;;;;;;4.20;2.73;;;22.40;52.50;;;22.82;37.52;98224.03;4970287;28;123908;-82
2022/09/03 01:46:18;;;;;;;2.63;1.87;;;22.40;52.70;;;22.80;37.82;98225.63;4978270;28;114342;-82
2022/09/03 01:48:58;;;;;;;3.70;2.37;;;22.40;52.70;;;22.77;38.01;98221.63;4982846;28;113878;-85
2022/09/03 01:51:29;;;;;;;3.37;2.20;;;22.30;52.70;;;22.74;38.12;98225.25;4968163;28;124115;-84
2022/09/03 01:54:34;;;;;;;2.57;1.93;;;22.30;53.60;;;22.74;37.90;98224.47;4970536;28;123737;-85
2022/09/03 01:57:33;;;;;;;2.43;1.67;;;22.30;53.10;;;22.73;38.08;98223.66;4986080;28;114745;-85
2022/09/03 02:00:30;;;;;;;2.23;1.90;;;22.30;53.30;;;22.73;38.20;98220.84;4978789;28;114955;-85
2022/09/03 02:03:04;;;;;;;2.27;1.90;;;22.30;53.40;;;22.76;38.27;98227.69;5001963;28;124079;-84
2022/09/03 02:05:33;;;;;;;2.20;2.00;;;22.30;53.40;;;22.77;38.16;98227.25;5005198;28;123688;-85
2022/09/03 02:08:01;;;;;;;4.10;2.23;;;22.30;53.50;;;22.77;38.19;98224.44;5017073;28;114211;-85
2022/09/03 02:10:44;;;;;;;2.23;1.60;;;22.30;54.30;;;22.78;38.21;98220.41;5013592;28;114452;-85
2022/09/03 02:13:19;;;;;;;2.73;1.77;;;22.30;53.70;;;22.79;38.14;98227.66;5000563;28;122388;-85
2022/09/03 02:15:51;;;;;;;2.17;1.97;;;22.30;53.70;;;22.80;37.96;98232.06;5015920;28;124641;-83
2022/09/03 02:18:24;;;;;;;2.23;1.77;;;22.00;53.50;;;22.80;38.32;98234.09;5010842;28;114382;-84
2022/09/03 02:20:53;;;;;;;2.87;1.80;;;22.30;53.80;;;22.79;38.00;98233.28;5020342;28;114095;-85
2022/09/03 02:23:20;;;;;;;3.53;1.83;;;22.30;53.60;;;22.80;37.70;98228.44;5008089;28;123740;-85
2022/09/03 02:25:55;;;;;;;2.53;1.73;;;22.30;53.30;;;22.78;37.82;98242.94;5003445;28;124276;-84
2022/09/03 02:28:22;;;;;;;2.43;1.50;;;22.30;53.20;;;22.77;37.72;98241.34;5009084;28;114281;-85
2022/09/03 02:30:49;;;;;;;1.50;1.30;;;22.30;53.20;;;22.75;37.56;98238.13;5008105;28;113756;-84
2022/09/03 02:33:16;;;;;;;1.83;1.40;;;22.30;53.00;;;22.73;37.84;98246.19;5010267;28;124733;-84
2022/09/03 02:35:43;;;;;;;3.30;1.97;;;22.30;53.10;;;22.71;37.65;98240.16;4999422;28;123897;-82
2022/09/03 02:38:21;;;;;;;2.73;1.70;;;22.30;53.20;;;22.72;37.80;98247.38;5000534;28;113617;-85
2022/09/03 02:40:48;;;;;;;2.10;1.67;;;22.30;53.40;;;22.72;38.04;98233.31;5004333;28;113978;-85
2022/09/03 02:43:26;;;;;;;2.97;2.00;;;22.30;53.40;;;22.72;37.90;98233.31;4998099;28;124730;-84
2022/09/03 02:45:59;;;;;;;1.70;1.50;;;22.30;53.50;;;22.71;37.86;98240.16;4988687;28;123396;-85
2022/09/03 02:48:26;;;;;;;1.97;1.57;;;22.20;53.40;;;22.71;37.91;98226.09;4990319;28;115288;-85
2022/09/03 02:50:53;;;;;;;1.83;1.37;;;22.30;53.50;;;22.70;38.07;98225.28;4992433;28;114827;-85
2022/09/03 02:53:20;;;;;;;1.50;1.30;;;22.20;53.50;;;22.70;37.92;98221.63;5005378;28;124115;-84
2022/09/03 02:55:46;;;;;;;2.27;1.30;;;22.20;53.60;;;22.69;37.93;98228.50;5008068;28;123908;-85
2022/09/03 02:58:13;;;;;;;2.53;1.60;;;22.20;53.60;;;22.68;38.27;98224.09;4989456;28;114548;-84
2022/09/03 03:00:39;;;;;;;1.77;1.50;;;22.20;53.70;;;22.66;38.23;98230.09;4991637;28;113280;-85
2022/09/03 03:03:06;;;;;;;2.50;1.40;;;22.20;53.70;;;22.63;38.35;98219.66;5001855;28;124283;-85
2022/09/03 03:05:54;;;;;;;3.03;1.60;;;22.20;53.80;;;22.60;37.99;98236.59;5012812;28;123933;-86
2022/09/03 03:08:23;;;;;;;1.90;1.40;;;22.20;53.90;;;22.59;38.12;98229.31;5022716;28;114537;-86
2022/09/03 03:10:57;;;;;;;2.13;1.57;;;22.20;53.90;;;22.56;38.45;98236.56;5026807;28;114078;-84
2022/09/03 03:13:28;;;;;;;1.90;1.50;;;22.10;54.00;;;22.55;38.16;98234.19;5015492;28;124121;-85
2022/09/03 03:16:00;;;;;;;2.90;1.73;;;22.10;54.10;;;22.55;38.23;98234.19;5013707;28;123197;-86
2022/09/03 03:18:27;;;;;;;2.63;1.47;;;22.10;54.10;;;22.53;38.66;98242.22;5016481;27;114092;-85
2022/09/03 03:20:54;;;;;;;5.37;1.87;;;22.10;54.10;;;22.49;38.37;98248.69;5013530;28;114065;-85
2022/09/03 03:23:22;;;;;;;1.80;1.40;;;22.00;54.00;;;22.42;38.51;98237.41;5028374;28;123855;-86
2022/09/03 03:25:48;;;;;;;2.63;1.53;;;22.00;54.00;;;22.39;38.24;98245.88;5011697;28;123751;-86
2022/09/03 03:28:17;;;;;;;1.70;1.60;;;21.90;54.00;;;22.34;38.27;98247.09;5009584;28;114665;-86
2022/09/03 03:30:46;;;;;;;2.27;1.20;;;21.90;54.20;;;22.33;38.40;98245.50;5027264;27;113561;-87
2022/09/03 03:33:13;;;;;;;1.83;1.40;;;21.90;54.20;;;22.32;38.77;98251.50;5016789;28;123986;-88
2022/09/03 03:35:41;;;;;;;5.83;1.50;;;21.90;54.30;;;22.31;38.69;98241.47;5013146;28;123238;-87
2022/09/03 03:38:08;;;;;;;2.63;1.63;;;21.90;54.40;;;22.30;38.98;98243.50;5017671;28;115755;-86
2022/09/03 03:44:19;;;;;;;1.97;1.30;;;21.80;54.50;;;22.21;38.96;98237.47;5019990;28;124838;-86
2022/09/03 03:47:05;;;;;;;3.37;1.67;;;21.80;54.70;;;22.17;39.18;98247.91;5032460;28;122926;-86
2022/09/03 03:49:33;;;;;;;1.77;1.50;;;21.80;54.90;;;22.17;39.16;98247.91;5017035;28;114292;-86
2022/09/03 03:52:18;;;;;;;1.57;1.40;;;21.70;55.00;;;22.18;39.25;98255.13;5020131;28;114256;-85
2022/09/03 03:54:48;;;;;;;2.90;1.40;;;21.80;55.30;;;22.18;39.41;98249.50;5021559;28;123814;-86
2022/09/03 03:57:33;;;;;;;2.60;1.67;;;21.70;55.20;;;22.15;39.34;98255.94;5028188;28;123899;-86
2022/09/03 04:00:21;;;;;;;3.20;2.00;;;21.70;55.40;;;22.12;39.67;98253.94;5029675;28;112469;-87
2022/09/03 04:02:48;;;;;;;2.13;1.60;;;21.70;55.60;;;22.13;39.60;98261.16;5046669;28;113758;-86
2022/09/03 04:05:15;;;;;;;3.10;1.70;;;21.70;55.70;;;22.12;39.70;98263.19;5035697;28;124066;-84
2022/09/03 04:07:42;;;;;;;2.20;1.57;;;21.70;56.40;;;22.11;39.93;98247.50;5033687;28;122663;-87
2022/09/03 04:10:09;;;;;;;1.77;1.30;;;21.70;55.90;;;22.13;39.69;98241.47;5032598;28;114409;-87
2022/09/03 04:12:35;;;;;;;1.60;1.50;;;21.70;56.10;;;22.11;39.94;98249.50;5040925;27;114719;-83
2022/09/03 04:15:02;;;;;;;1.87;1.57;;;21.60;56.20;;;22.08;40.25;98244.69;5024425;28;123968;-86
2022/09/03 04:17:29;;;;;;;1.40;1.20;;;21.60;56.30;;;22.05;39.82;98252.72;5033731;28;124121;-86
2022/09/03 04:19:56;;;;;;;2.30;1.73;;;21.60;56.40;;;22.03;40.31;98254.31;5033086;28;114294;-86
2022/09/03 04:22:22;;;;;;;1.97;1.50;;;21.60;56.50;;;22.00;40.43;98247.53;5019598;28;113482;-86
2022/09/03 04:24:49;;;;;;;2.23;1.43;;;21.50;56.50;;;21.99;40.29;98245.09;5021820;28;124024;-86
2022/09/03 04:27:15;;;;;;;1.73;1.27;;;21.50;56.60;;;21.98;40.54;98247.09;5017548;28;124219;-85
2022/09/03 04:29:42;;;;;;;2.30;1.50;;;21.50;56.60;;;21.99;40.08;98248.69;5009335;28;114464;-86
2022/09/03 04:34:53;;;;;;;2.60;1.60;;;21.60;57.00;;;22.00;40.65;98243.88;5015614;28;124714;-85
2022/09/03 04:37:19;;;;;;;2.60;1.50;;;21.50;56.90;;;22.00;40.69;98249.50;5009346;27;124255;-86
2022/09/03 04:39:46;;;;;;;2.70;1.50;;;21.50;57.10;;;22.00;40.71;98255.13;5009537;28;115060;-87
2022/09/03 04:42:12;;;;;;;3.00;1.60;;;21.60;57.30;;;22.01;40.89;98256.75;5007743;28;114066;-86
2022/09/03 04:44:39;;;;;;;2.60;1.43;;;21.60;57.40;;;21.99;40.49;98256.34;5018005;28;124084;-86
2022/09/03 04:47:06;;;;;;;1.70;1.30;;;21.60;57.50;;;21.98;40.73;98260.38;5012165;28;122968;-85
2022/09/03 04:49:33;;;;;;;2.47;1.67;;;21.50;57.50;;;21.97;40.85;98261.56;5001035;28;112559;-86
2022/09/03 04:52:00;;;;;;;1.90;1.57;;;21.50;57.60;;;21.95;41.13;98253.53;5016587;28;113496;-86
2022/09/03 04:54:26;;;;;;;2.63;1.87;;;21.50;57.80;;;21.95;41.31;98252.72;5015366;27;124050;-86
2022/09/03 04:56:53;;;;;;;2.90;1.50;;;21.50;58.00;;;21.93;40.96;98249.53;5030548;27;121900;-85
2022/09/03 04:59:19;;;;;;;2.27;1.57;;;21.50;58.10;;;21.92;41.44;98257.13;5013023;28;114341;-86
2022/09/03 05:01:46;;;;;;;1.60;1.50;;;21.50;58.30;;;21.94;41.59;98263.16;5031428;27;114097;-84
2022/09/03 05:04:12;;;;;;;2.37;2.00;;;21.50;58.30;;;21.94;41.30;98259.56;5018653;27;124006;-85
2022/09/03 05:06:39;;;;;;;1.90;1.50;;;21.50;58.50;;;21.94;41.34;98257.53;5009229;28;123079;-86
2022/09/03 05:09:06;;;;;;;2.60;1.80;;;21.50;58.60;;;21.95;41.44;98253.53;5022083;28;114163;-85
2022/09/03 05:11:32;;;;;;;4.30;1.70;;;21.50;58.70;;;21.96;41.45;98257.94;5011098;28;114575;-85
2022/09/03 05:13:59;;;;;;;2.20;1.50;;;21.50;58.80;;;21.95;41.41;98255.53;5008957;28;124087;-85
2022/09/03 05:16:28;;;;;;;1.53;1.27;;;21.50;58.80;;;21.94;41.72;98256.75;5012606;28;123900;-85
2022/09/03 05:19:00;;;;;;;1.97;1.67;;;21.50;58.90;;;21.93;41.69;98261.56;5024852;28;113603;-84
2022/09/03 05:21:28;;;;;;;2.60;1.50;;;21.50;59.10;;;21.93;41.42;98257.97;5010815;28;114998;-84
2022/09/03 05:23:55;;;;;;;2.00;1.67;;;20.50;58.20;;;21.92;41.57;98254.31;5008382;28;124208;-86
2022/09/03 05:26:28;;;;;;;5.37;2.10;;;21.50;59.20;;;21.94;41.74;98246.28;5010035;28;123595;-85
2022/09/03 05:28:58;;;;;;;2.60;1.97;;;21.50;59.40;;;21.95;42.03;98263.97;5014446;28;114960;-85
2022/09/03 05:31:28;;;;;;;2.37;1.70;;;21.50;59.50;;;21.95;42.08;98253.53;5009416;28;112198;-85
2022/09/03 05:33:59;;;;;;;2.70;1.70;;;21.50;59.60;;;21.96;42.06;98251.53;5015620;27;124501;-85
2022/09/03 05:36:29;;;;;;;3.30;2.00;;;21.50;59.80;;;21.97;41.95;98262.38;5014864;28;122834;-86
2022/09/03 05:38:58;;;;;;;2.70;1.53;;;21.50;59.80;;;21.97;42.12;98262.38;5007938;28;113626;-85
2022/09/03 05:41:26;;;;;;;3.60;2.00;;;21.50;59.80;;;21.97;42.20;98261.56;5000763;28;112969;-85
2022/09/03 05:43:54;;;;;;;3.20;1.50;;;21.50;59.90;;;21.98;41.81;98264.00;5010715;28;123956;-86
2022/09/03 05:46:31;;;;;;;3.80;1.77;;;21.50;60.00;;;21.98;41.99;98264.00;5006871;28;124042;-85
2022/09/03 05:49:00;;;;;;;3.53;1.70;;;21.50;60.20;;;22.01;41.93;98268.00;5015045;28;113256;-86
2022/09/03 05:51:27;;;;;;;6.20;1.63;;;21.50;61.00;;;22.01;42.14;98263.19;5004625;28;113666;-85
2022/09/03 05:53:54;;;;;;;5.90;2.63;;;21.50;60.40;;;22.04;42.46;98268.00;5029256;27;124345;-85
2022/09/03 05:56:24;;;;;;;7.10;3.50;;;21.60;60.60;;;22.04;42.07;98268.00;5027847;28;123862;-85
2022/09/03 05:58:53;;;;;;;3.70;2.73;;;21.60;60.80;;;22.06;42.22;98265.59;5025366;28;114453;-86
2022/09/03 06:01:29;;;;;;;4.03;2.50;;;21.60;60.80;;;22.09;42.17;98274.44;5017098;27;114001;-86
2022/09/03 06:04:08;;;;;;;3.27;2.47;;;21.60;61.00;;;22.10;42.42;98270.41;5018194;28;124748;-86
2022/09/03 06:06:38;;;;;;;2.83;2.30;;;21.60;61.00;;;22.09;42.46;98272.44;5012277;28;123498;-85
2022/09/03 06:09:08;;;;;;;2.90;2.27;;;21.60;61.20;;;22.08;42.25;98272.81;5015764;27;115281;-86
2022/09/03 06:11:36;;;;;;;2.53;2.00;;;21.60;61.30;;;22.07;42.70;98272.00;5010785;28;114721;-86
2022/09/03 06:14:06;;;;;;;2.67;1.87;;;21.60;61.30;;;22.06;42.67;98276.84;5017731;28;123969;-86
2022/09/03 06:16:40;;;;;;;2.33;1.90;;;21.60;61.40;;;22.08;42.76;98284.06;5018119;28;124363;-85
2022/09/03 06:19:09;;;;;;;4.23;1.90;;;21.60;61.60;;;22.05;42.73;98280.84;5013968;28;114199;-86
2022/09/03 06:21:41;;;;;;;5.53;2.57;;;21.50;61.70;;;22.05;43.01;98280.84;5013446;28;114008;-85
2022/09/03 06:24:10;;;;;;;2.43;1.97;;;21.60;61.90;;;22.05;43.05;98280.06;5013053;28;124044;-84
2022/09/03 06:26:38;;;;;;;5.60;2.53;;;21.60;62.00;;;22.04;42.72;98290.50;5010878;28;123904;-86
2022/09/03 06:29:05;;;;;;;2.97;2.10;;;21.60;62.10;;;22.02;42.85;98286.47;5011826;28;114462;-86
2022/09/03 06:31:32;;;;;;;5.27;2.60;;;21.50;62.20;;;22.02;43.06;98280.84;5018381;28;114023;-85
2022/09/03 06:33:58;;;;;;;3.00;1.87;;;21.50;62.40;;;22.00;43.03;98289.72;5012499;28;124033;-86
2022/09/03 06:36:25;;;;;;;2.73;1.80;;;21.50;62.70;;;22.01;43.12;98291.31;5011117;28;123889;-86
2022/09/03 06:38:54;;;;;;;6.23;1.70;;;21.50;62.80;;;22.04;43.33;98281.25;5024007;28;114214;-86
2022/09/03 06:41:25;;;;;;;4.53;2.03;;;21.50;62.80;;;22.07;43.37;98286.09;5021044;28;114057;-84
2022/09/03 06:44:01;;;;;;;2.70;2.03;;;21.60;63.00;;;22.11;43.11;98283.25;5011471;28;123134;-86
2022/09/03 06:46:29;;;;;;;4.23;1.60;;;21.70;63.10;;;22.11;43.41;98288.88;5015622;28;123579;-86
2022/09/03 06:48:56;;;;;;;5.40;2.00;;;21.60;63.10;;;22.14;43.21;98288.06;5019436;28;113741;-86
2022/09/03 06:51:26;;;;;;;2.90;2.20;;;21.60;63.20;;;22.14;42.99;98288.06;5026711;28;114156;-86
2022/09/03 06:53:59;;;;;;;3.40;1.93;;;21.60;63.30;;;22.13;43.07;98287.28;5031271;27;124217;-85
2022/09/03 06:56:26;;;;;;;3.43;2.00;;;21.60;63.40;;;22.15;43.52;98289.72;5023676;27;123287;-86
2022/09/03 06:58:56;;;;;;;2.70;1.80;;;21.60;63.40;;;22.15;43.26;98289.72;5025504;28;114418;-86
2022/09/03 07:01:31;;;;;;;3.63;2.07;;;21.60;63.70;;;22.15;44.00;98284.06;5047490;27;115639;-87
2022/09/03 07:04:01;;;;;;;2.20;1.80;;;21.60;64.20;;;22.14;44.07;98283.28;5051516;27;123924;-86
2022/09/03 07:06:36;;;;;;;11.50;3.00;;;21.60;64.80;;;22.18;44.42;98286.09;5033358;28;123342;-85
2022/09/03 07:09:07;;;;;;;2.87;2.20;;;21.70;65.30;;;22.19;44.70;98282.06;5015512;28;97014;-85
2022/09/03 07:11:36;;;;;;;2.57;2.00;;;21.70;65.60;;;22.21;44.83;98282.47;5034049;28;114459;-86
2022/09/03 07:14:04;;;;;;;3.03;2.40;;;21.70;65.80;;;22.24;44.86;98290.13;5043502;28;123921;-86
2022/09/03 07:16:35;;;;;;;3.33;2.57;;;21.70;66.40;;;22.22;45.05;98289.75;5030281;28;124277;-86
2022/09/03 07:19:04;;;;;;;10.33;3.20;;;21.70;66.80;;;22.23;45.64;98286.50;5043969;28;114964;-85
2022/09/03 07:21:50;;;;;;;3.17;2.30;;;21.70;67.00;;;22.25;45.31;98288.94;5038153;28;113522;-85
2022/09/03 07:24:20;;;;;;;4.63;2.37;;;21.80;67.40;;;22.27;45.53;98292.94;5034496;28;124541;-87
2022/09/03 07:26:48;;;;;;;3.57;2.27;;;21.80;67.60;;;22.31;45.35;98292.94;5029196;28;123655;-87
2022/09/03 07:29:18;;;;;;;2.93;1.97;;;21.80;67.70;;;22.35;45.58;98299.34;5039850;28;113953;-84
2022/09/03 07:31:50;;;;;;;5.20;2.50;;;21.80;68.00;;;22.37;45.85;98294.13;5031706;28;114281;-87
2022/09/03 07:34:35;;;;;;;3.60;2.60;;;21.80;68.20;;;22.41;45.83;98282.88;5024538;28;124083;-85
2022/09/03 07:37:20;;;;;;;4.10;2.20;;;21.90;68.50;;;22.47;45.50;98293.31;5028393;28;122850;-86
2022/09/03 07:39:47;;;;;;;3.23;2.73;;;21.90;68.70;;;22.50;45.92;98295.31;5023206;28;114271;-86
2022/09/03 07:42:34;;;;;;;2.50;2.10;;;21.90;69.00;;;22.54;45.89;98294.50;5022179;28;113964;-84
2022/09/03 07:45:04;;;;;;;3.23;2.47;;;22.00;69.40;;;22.60;46.16;98296.50;4998529;28;123272;-84
2022/09/03 07:47:31;;;;;;;4.33;2.40;;;22.00;69.70;;;22.68;46.23;98292.47;4998684;28;123821;-84
2022/09/03 07:49:57;;;;;;;3.90;2.90;;;22.10;70.00;;;22.75;46.01;98299.28;5002157;28;115214;-86
2022/09/03 07:53:01;;;;;;;5.47;2.40;;;22.20;70.30;;;22.77;46.02;98303.31;5002016;28;114890;-85
2022/09/03 07:55:28;;;;;;;5.20;2.40;;;22.20;70.50;;;22.83;46.25;98304.47;5011719;28;124187;-86
2022/09/03 07:57:55;;;;;;;4.27;3.03;;;22.20;70.50;;;22.87;46.21;98305.28;5026514;28;123750;-85
2022/09/03 08:00:22;;;;;;;3.43;2.93;;;22.30;70.80;;;22.92;46.08;98313.34;4999540;28;114490;-84
2022/09/03 08:02:51;;;;;;;3.33;2.50;;;22.30;71.00;;;22.96;45.90;98312.50;5002096;28;113154;-85
2022/09/03 08:05:21;;;;;;;3.27;2.80;;;22.30;71.00;;;22.99;46.14;98303.28;4998806;28;124355;-84
2022/09/03 08:07:48;;;;;;;2.90;2.40;;;22.40;71.20;;;23.03;46.18;98306.91;4991373;28;123857;-85
2022/09/03 08:10:15;;;;;;;4.60;2.63;;;22.50;71.30;;;23.08;46.16;98309.28;5000971;28;114417;-84
2022/09/03 08:12:42;;;;;;;7.03;2.93;;;22.50;71.40;;;23.14;46.37;98296.38;4996396;28;113022;-85
2022/09/03 08:15:09;;;;;;;2.80;2.50;;;22.50;71.50;;;23.20;46.07;98308.81;5004114;28;124343;-77
2022/09/03 08:17:35;;;;;;;3.70;2.37;;;22.60;71.60;;;23.28;45.73;98309.59;5020521;28;124207;-85
2022/09/03 08:20:03;;;;;;;3.30;2.20;;;22.60;71.60;;;23.32;45.30;98307.53;5022311;28;114201;-83
2022/09/03 08:22:29;;;;;;;5.33;2.30;;;22.70;71.10;;;23.35;45.44;98318.03;5024652;28;114096;-84
2022/09/03 08:24:55;;;;;;;7.70;2.30;;;22.70;70.80;;;23.39;45.10;98310.34;5025243;28;124083;-84
2022/09/03 08:27:24;;;;;;;2.43;2.23;;;22.80;70.80;;;23.46;45.12;98310.31;5026779;28;124745;-85
2022/09/03 08:29:50;;;;;;;4.87;2.17;;;22.80;70.60;;;23.52;44.98;98316.31;5025424;28;114224;-84
2022/09/03 08:32:17;;;;;;;3.37;2.60;;;22.90;70.60;;;23.64;45.15;98310.19;5021577;28;114063;-83
2022/09/03 08:34:43;;;;;;;4.40;2.50;;;22.90;70.60;;;23.75;44.31;98319.44;5024223;27;123271;-85
2022/09/03 08:37:12;;;;;;;6.20;2.63;;;23.00;70.50;;;23.83;44.39;98316.56;5027326;28;123381;-86
2022/09/03 08:39:38;;;;;;;3.17;2.17;;;23.10;70.20;;;23.91;44.13;98313.28;5023748;28;115318;-85
2022/09/03 08:43:22;;;;;;;5.80;2.70;;;23.20;70.10;;;23.97;44.16;98308.81;5025101;28;114743;-86
2022/09/03 08:45:49;;;;;;;4.07;2.57;;;23.30;70.10;;;24.01;44.02;98309.56;4929068;28;124204;-84
2022/09/03 08:48:21;;;;;;;2.50;2.30;;;23.30;69.90;;;24.04;43.92;98305.09;5009406;28;124507;-84
2022/09/03 08:50:54;;;;;;;3.20;2.27;;;23.30;69.90;;;24.09;44.01;98309.53;5017830;28;113457;-84
2022/09/03 08:53:39;;;;;;;3.73;2.90;;;23.40;70.00;;;24.17;43.93;98322.34;5029851;27;113949;-86
2022/09/03 08:56:23;;;;;;;3.20;2.57;;;23.50;70.00;;;24.23;43.94;98329.97;5016682;28;124169;-87
2022/09/03 08:58:49;;;;;;;3.77;2.57;;;23.60;70.00;;;24.29;44.01;98335.16;5013954;28;124117;-85
2022/09/03 09:01:55;;;;;;;7.20;3.90;;;23.60;69.90;;;24.31;43.96;98332.72;5018815;27;113644;-83
2022/09/03 09:05:02;;;;;;;5.40;3.13;;;23.70;69.90;;;24.35;43.49;98333.50;5021095;28;113917;-84
2022/09/03 09:07:48;;;;;;;4.33;2.60;;;23.70;69.80;;;24.38;43.70;98325.00;5007756;27;123188;-82
2022/09/03 09:10:32;;;;;;;4.03;2.47;;;23.70;69.60;;;24.40;43.89;98335.88;5017514;28;122966;-85
2022/09/03 09:13:41;;;;;;;5.50;2.83;;;23.80;69.70;;;24.36;43.74;98335.91;5015962;28;114266;-86
2022/09/03 09:16:42;;;;;;;2.60;2.23;;;23.70;69.80;;;24.35;43.80;98341.97;5018666;28;113894;-83
2022/09/03 09:19:48;;;;;;;6.00;2.60;;;23.80;70.00;;;24.35;44.09;98353.28;5011980;28;123957;-84
2022/09/03 09:22:28;;;;;;;2.63;2.43;;;23.70;70.30;;;24.34;44.15;98351.66;5011663;28;123847;-83
2022/09/03 09:25:01;;;;;;;5.07;3.17;;;23.80;70.30;;;24.28;44.25;98344.84;5017374;28;116211;-84
2022/09/03 09:27:28;;;;;;;2.63;2.23;;;23.80;70.40;;;24.24;44.58;98350.53;5011829;28;114091;-83
2022/09/03 09:30:00;;;;;;;3.53;2.87;;;23.70;70.30;;;24.23;44.35;98346.91;5023428;27;124568;-81
2022/09/03 09:32:27;;;;;;;2.87;2.63;;;23.70;70.30;;;24.24;44.65;98345.69;5022761;28;122827;-84
2022/09/03 09:34:53;;;;;;;2.83;2.27;;;23.70;70.40;;;24.32;44.61;98337.97;5024532;28;113973;-83
2022/09/03 09:37:20;;;;;;;3.90;2.80;;;23.70;70.50;;;24.39;44.33;98340.72;5022638;28;115092;-85
2022/09/03 09:39:57;;;;;;;4.67;3.17;;;23.80;70.70;;;24.41;44.17;98337.47;5017194;28;124146;-83
2022/09/03 09:42:24;;;;;;;5.00;3.10;;;23.80;70.80;;;24.43;44.03;98332.22;5019960;28;124712;-84
2022/09/03 09:44:51;;;;;;;3.90;2.90;;;23.80;70.70;;;24.43;44.36;98347.16;5015425;28;114821;-84
2022/09/03 09:47:34;;;;;;;2.50;2.30;;;23.80;70.60;;;24.44;44.08;98331.03;5005388;28;114345;-85
2022/09/03 09:50:03;;;;;;;3.50;3.20;;;23.80;70.50;;;24.48;44.03;98323.34;5021620;28;123534;-84
2022/09/03 09:52:30;;;;;;;5.53;3.07;;;23.90;70.40;;;24.53;43.83;98322.06;5023822;28;123616;-85
2022/09/03 09:55:18;;;;;;;9.03;3.30;;;23.90;70.10;;;24.49;43.90;98327.75;5023656;27;114247;-84
2022/09/03 09:57:45;;;;;;;4.37;2.77;;;23.90;69.80;;;24.54;43.56;98332.16;5021757;27;114477;-83
2022/09/03 10:00:16;;;;;;;3.00;2.43;;;23.90;69.80;;;24.55;43.82;98326.06;5010202;28;123949;-82
2022/09/03 10:02:53;;;;;;;3.07;2.73;;;23.90;69.70;;;24.59;43.50;98328.88;5020413;28;123831;-83
2022/09/03 10:05:39;;;;;;;4.90;2.70;;;24.00;70.00;;;24.61;43.62;98338.56;5016727;28;114179;-83
2022/09/03 10:08:23;;;;;;;3.43;2.90;;;24.00;69.90;;;24.65;43.62;98333.66;5006544;28;114072;-83
2022/09/03 10:10:50;;;;;;;8.33;2.57;;;24.10;69.80;;;24.71;43.57;98336.03;5010238;28;123343;-83
2022/09/03 10:13:21;;;;;;;5.63;2.63;;;24.10;69.60;;;24.72;43.20;98337.63;5020098;28;123448;-84
2022/09/03 10:16:23;;;;;;;5.93;3.40;;;24.10;69.40;;;24.69;43.20;98334.44;5019372;28;114649;-85
2022/09/03 10:19:15;;;;;;;3.80;3.00;;;24.20;69.10;;;24.73;43.07;98342.06;5009565;28;114655;-86
2022/09/03 10:22:16;;;;;;;4.07;3.07;;;24.20;68.80;;;24.73;43.03;98337.22;5017765;27;124004;-86
2022/09/03 10:24:54;;;;;;;3.33;2.93;;;24.20;68.80;;;24.80;42.70;98336.34;5015485;28;123938;-86
2022/09/03 10:27:22;;;;;;;4.53;2.63;;;24.20;68.70;;;24.90;42.58;98341.06;5005588;28;115124;-87
2022/09/03 10:29:49;;;;;;;2.53;2.30;;;24.30;68.50;;;24.99;42.65;98329.28;5016166;28;114465;-87
2022/09/03 10:32:58;;;;;;;3.40;2.67;;;24.40;68.30;;;25.07;42.13;98319.50;5029604;27;124531;-86
2022/09/03 10:35:37;;;;;;;3.70;2.40;;;24.50;67.90;;;25.12;41.83;98327.50;5013052;28;123736;-87
2022/09/03 10:38:35;;;;;;;3.53;2.63;;;24.50;67.70;;;25.14;41.64;98320.19;5011983;28;113357;-87
2022/09/03 10:41:47;;;;;;;3.90;2.17;;;24.60;67.40;;;25.26;41.74;98329.41;4983429;28;112899;-87
2022/09/03 10:45:05;;;;;;;4.47;2.60;;;24.70;67.50;;;25.37;41.80;98332.09;4977423;28;124065;-88
2022/09/03 10:48:06;;;;;;;2.40;2.20;;;24.80;67.50;;;25.45;41.29;98325.91;4987498;28;124409;-87
2022/09/03 10:51:06;;;;;;;3.20;2.70;;;24.90;66.90;;;25.54;41.29;98331.81;4984231;28;114573;-88
2022/09/03 10:53:57;;;;;;;2.17;1.97;;;24.90;66.50;;;25.65;40.87;98330.88;4984114;28;113947;-90